Time;durP1;ratioP1;P1;durP2;ratioP2;P2;SDS_P1;SDS_P2;PMS_P1;PMS_P2;Temp;Humidity;BMP_temperature;BMP_pressure;BME280_temperature;BME280_humidity;BME280_pressure;Samples;Min_cycle;Max_cycle;Signal;HPM_P1;HPM_P2
2022/08/28 00:00:12;;;;;;;12.27;3.75;;;;;;;;;;5062730;28;20419;-81
2022/08/28 00:02:39;;;;;;;10.02;3.95;;;;;;;;;;5060651;28;20105;-81
2022/08/28 00:05:06;;;;;;;14.43;4.20;;;;;;;;;;5079705;28;20410;-80
2022/08/28 00:07:32;;;;;;;11.38;3.63;;;;;;;;;;5078685;28;20037;-81
2022/08/28 00:09:58;;;;;;;12.60;3.72;;;;;;;;;;5078756;28;20123;-81
2022/08/28 00:12:24;;;;;;;11.18;3.53;;;;;;;;;;5078599;28;20087;-80
2022/08/28 00:14:50;;;;;;;14.00;3.83;;;;;;;;;;5079024;28;20513;-82
2022/08/28 00:17:16;;;;;;;11.77;3.60;;;;;;;;;;5080951;28;20051;-82
2022/08/28 00:19:42;;;;;;;12.60;3.72;;;;;;;;;;5078828;28;20051;-81
2022/08/28 00:22:08;;;;;;;13.15;3.58;;;;;;;;;;5077729;28;20075;-81
2022/08/28 00:24:35;;;;;;;11.02;4.07;;;;;;;;;;5078916;28;20044;-81
2022/08/28 00:29:46;;;;;;;11.57;3.40;;;;;;;;;;5079133;28;20048;-81
2022/08/28 00:32:12;;;;;;;10.35;3.22;;;;;;;;;;5080363;28;20041;-81
2022/08/28 00:34:39;;;;;;;12.98;3.65;;;;;;;;;;5072414;28;20074;-83
2022/08/28 00:37:05;;;;;;;11.30;3.83;;;;;;;;;;5069594;28;20052;-81
2022/08/28 00:39:31;;;;;;;18.35;4.50;;;;;;;;;;5079084;28;20041;-83
2022/08/28 00:41:57;;;;;;;11.77;3.47;;;;;;;;;;5079389;28;20109;-80
2022/08/28 00:44:27;;;;;;;10.95;3.92;;;;;;;;;;5060669;28;20516;-82
2022/08/28 00:46:54;;;;;;;10.82;3.40;;;;;;;;;;5059910;28;20487;-82
2022/08/28 00:49:22;;;;;;;10.95;3.53;;;;;;;;;;5078930;28;20044;-81
2022/08/28 00:52:06;;;;;;;10.98;3.42;;;;;;;;;;5070012;28;20044;-81
2022/08/28 00:54:34;;;;;;;12.40;3.63;;;;;;;;;;5079472;28;20052;-82
2022/08/28 00:57:02;;;;;;;12.88;3.58;;;;;;;;;;5077787;28;20046;-81
2022/08/28 00:59:28;;;;;;;8.77;3.42;;;;;;;;;;5059735;28;20135;-82
2022/08/28 01:01:55;;;;;;;11.77;3.75;;;;;;;;;;5079726;28;20103;-81
2022/08/28 01:04:23;;;;;;;11.63;3.78;;;;;;;;;;5079588;28;20040;-82
2022/08/28 01:06:53;;;;;;;12.95;3.95;;;;;;;;;;5080235;28;20044;-82
2022/08/28 01:09:19;;;;;;;13.38;3.65;;;;;;;;;;5060383;28;20036;-81
2022/08/28 01:11:46;;;;;;;12.45;3.67;;;;;;;;;;5076439;28;21741;-80
2022/08/28 01:14:14;;;;;;;11.65;3.47;;;;;;;;;;5077144;28;20052;-82
2022/08/28 01:16:42;;;;;;;16.23;3.45;;;;;;;;;;5079680;28;20521;-82
2022/08/28 01:19:12;;;;;;;11.57;3.70;;;;;;;;;;5079686;28;20041;-80
2022/08/28 01:21:50;;;;;;;10.82;3.63;;;;;;;;;;5060697;28;20051;-81
2022/08/28 01:24:17;;;;;;;9.95;3.60;;;;;;;;;;5076349;28;20073;-81
2022/08/28 01:26:43;;;;;;;13.15;3.97;;;;;;;;;;5062380;28;20123;-82
2022/08/28 01:29:11;;;;;;;10.45;3.60;;;;;;;;;;5044276;28;20681;-81
2022/08/28 01:31:38;;;;;;;9.93;3.50;;;;;;;;;;5076955;28;20049;-81
2022/08/28 01:34:04;;;;;;;11.73;3.90;;;;;;;;;;5080336;28;20063;-80
2022/08/28 01:36:32;;;;;;;10.88;3.65;;;;;;;;;;5079757;28;20047;-81
2022/08/28 01:39:02;;;;;;;13.45;3.95;;;;;;;;;;5081394;28;20055;-81
2022/08/28 01:41:28;;;;;;;12.98;3.72;;;;;;;;;;5081097;28;20086;-82
2022/08/28 01:43:55;;;;;;;13.00;3.95;;;;;;;;;;5076613;28;20127;-81
2022/08/28 01:46:21;;;;;;;12.27;3.55;;;;;;;;;;5078146;28;20075;-81
2022/08/28 01:48:48;;;;;;;12.23;4.03;;;;;;;;;;5080320;28;20452;-79
2022/08/28 01:51:14;;;;;;;12.52;3.42;;;;;;;;;;5079922;28;20036;-80
2022/08/28 01:53:40;;;;;;;11.38;3.13;;;;;;;;;;5079680;28;21355;-80
2022/08/28 01:56:08;;;;;;;10.23;3.45;;;;;;;;;;5080059;28;20045;-80
2022/08/28 01:58:34;;;;;;;10.05;3.70;;;;;;;;;;5074345;28;20514;-80
2022/08/28 02:01:00;;;;;;;11.73;3.90;;;;;;;;;;5079933;28;20441;-81
2022/08/28 02:03:26;;;;;;;13.18;4.07;;;;;;;;;;5080080;28;20094;-81
2022/08/28 02:05:53;;;;;;;10.25;3.53;;;;;;;;;;5079597;28;20045;-80
2022/08/28 02:08:19;;;;;;;10.38;3.60;;;;;;;;;;5063195;28;20463;-81
2022/08/28 02:10:45;;;;;;;9.07;3.20;;;;;;;;;;5079348;28;20044;-81
2022/08/28 02:13:15;;;;;;;12.30;3.72;;;;;;;;;;5077303;28;20150;-80
2022/08/28 02:15:42;;;;;;;9.85;3.42;;;;;;;;;;5060616;28;20101;-80
2022/08/28 02:18:08;;;;;;;10.57;3.70;;;;;;;;;;5078399;28;20048;-81
2022/08/28 02:20:34;;;;;;;8.93;3.33;;;;;;;;;;5081186;28;20047;-80
2022/08/28 02:23:00;;;;;;;13.52;3.65;;;;;;;;;;5077160;28;20294;-80
2022/08/28 02:25:27;;;;;;;12.55;3.90;;;;;;;;;;5078295;28;20041;-80
2022/08/28 02:27:53;;;;;;;9.85;3.40;;;;;;;;;;5078046;28;20068;-81
2022/08/28 02:30:19;;;;;;;11.75;3.72;;;;;;;;;;5062587;28;20049;-81
2022/08/28 02:32:45;;;;;;;10.02;3.45;;;;;;;;;;5079781;28;20040;-80
2022/08/28 02:35:13;;;;;;;10.82;3.70;;;;;;;;;;5081935;28;20041;-80
2022/08/28 02:37:43;;;;;;;11.00;3.55;;;;;;;;;;5082469;28;20048;-80
2022/08/28 02:40:09;;;;;;;9.60;3.60;;;;;;;;;;5065123;28;20044;-81
2022/08/28 02:42:35;;;;;;;9.13;2.97;;;;;;;;;;5081549;28;20086;-81
2022/08/28 02:45:01;;;;;;;10.50;3.55;;;;;;;;;;5078074;28;20040;-81
2022/08/28 02:47:27;;;;;;;9.82;3.70;;;;;;;;;;5082592;28;20552;-80
2022/08/28 02:49:54;;;;;;;11.77;3.40;;;;;;;;;;5049398;28;20048;-81
2022/08/28 02:52:21;;;;;;;10.25;3.55;;;;;;;;;;5083019;28;20064;-81
2022/08/28 02:54:47;;;;;;;11.70;2.88;;;;;;;;;;5083105;28;20530;-80
2022/08/28 02:57:13;;;;;;;7.93;3.15;;;;;;;;;;5084463;28;20044;-80
2022/08/28 02:59:39;;;;;;;12.35;3.80;;;;;;;;;;5060532;28;20036;-80
2022/08/28 03:02:06;;;;;;;11.20;3.80;;;;;;;;;;5082667;28;20116;-81
2022/08/28 03:04:33;;;;;;;10.57;3.45;;;;;;;;;;5079665;28;20086;-82
2022/08/28 03:06:59;;;;;;;15.07;3.80;;;;;;;;;;5065464;28;20104;-81
2022/08/28 03:09:25;;;;;;;11.90;3.55;;;;;;;;;;5063432;28;20544;-83
2022/08/28 03:11:52;;;;;;;10.20;3.92;;;;;;;;;;5064841;28;20041;-80
2022/08/28 03:14:19;;;;;;;11.70;3.15;;;;;;;;;;5062057;28;20044;-82
2022/08/28 03:16:45;;;;;;;11.50;3.78;;;;;;;;;;5082240;28;20040;-81
2022/08/28 03:19:11;;;;;;;8.75;3.33;;;;;;;;;;5082311;28;20071;-80
2022/08/28 03:21:37;;;;;;;12.75;3.65;;;;;;;;;;5063504;28;20047;-81
2022/08/28 03:24:03;;;;;;;9.80;3.22;;;;;;;;;;5063464;28;20108;-81
2022/08/28 03:26:29;;;;;;;10.95;3.65;;;;;;;;;;5080048;28;20064;-80
2022/08/28 03:28:56;;;;;;;11.38;3.30;;;;;;;;;;5061883;28;20044;-81
2022/08/28 03:31:24;;;;;;;11.50;3.45;;;;;;;;;;5064116;28;20060;-82
2022/08/28 03:33:53;;;;;;;11.23;3.67;;;;;;;;;;5080642;28;20154;-80
2022/08/28 03:36:23;;;;;;;10.20;3.20;;;;;;;;;;5080593;28;20040;-81
2022/08/28 03:38:50;;;;;;;9.27;3.53;;;;;;;;;;5079362;28;20040;-81
2022/08/28 03:41:17;;;;;;;11.73;3.60;;;;;;;;;;5080929;28;20045;-80
2022/08/28 03:43:44;;;;;;;8.95;3.55;;;;;;;;;;5075277;28;20090;-81
2022/08/28 03:46:14;;;;;;;10.32;3.47;;;;;;;;;;5056729;28;20051;-81
2022/08/28 03:48:41;;;;;;;9.85;2.85;;;;;;;;;;5079467;28;20037;-81
2022/08/28 03:51:08;;;;;;;8.73;3.10;;;;;;;;;;5076729;28;20106;-82
2022/08/28 03:53:34;;;;;;;12.52;3.50;;;;;;;;;;5055515;28;20076;-82
2022/08/28 03:56:01;;;;;;;10.15;2.90;;;;;;;;;;5075093;28;20463;-80
2022/08/28 03:58:27;;;;;;;11.50;3.22;;;;;;;;;;5077398;28;20040;-82
2022/08/28 04:00:54;;;;;;;10.15;3.22;;;;;;;;;;5074051;28;20094;-80
2022/08/28 04:03:20;;;;;;;10.02;2.88;;;;;;;;;;5051716;28;20052;-82
2022/08/28 04:05:47;;;;;;;11.52;3.20;;;;;;;;;;5071183;28;20072;-82
2022/08/28 04:08:14;;;;;;;12.70;3.53;;;;;;;;;;5054145;28;20565;-81
2022/08/28 04:10:41;;;;;;;12.85;3.25;;;;;;;;;;5069332;28;20052;-80
2022/08/28 04:13:07;;;;;;;10.57;3.20;;;;;;;;;;5069827;28;20056;-82
2022/08/28 04:15:33;;;;;;;10.52;3.50;;;;;;;;;;5054201;28;20036;-81
2022/08/28 04:17:59;;;;;;;11.90;3.45;;;;;;;;;;5072209;28;20047;-82
2022/08/28 04:20:26;;;;;;;10.10;3.40;;;;;;;;;;5072375;28;20075;-81
2022/08/28 04:22:53;;;;;;;15.00;3.60;;;;;;;;;;5071964;28;20037;-81
2022/08/28 04:25:19;;;;;;;11.57;3.80;;;;;;;;;;5073442;28;20036;-81
2022/08/28 04:27:45;;;;;;;13.93;3.42;;;;;;;;;;5072401;28;20160;-81
2022/08/28 04:30:12;;;;;;;11.77;3.25;;;;;;;;;;5068787;28;20405;-81
2022/08/28 04:32:38;;;;;;;10.75;3.50;;;;;;;;;;5074587;28;20486;-80
2022/08/28 04:35:05;;;;;;;8.25;3.22;;;;;;;;;;5078677;28;20036;-81
2022/08/28 04:37:31;;;;;;;10.95;3.22;;;;;;;;;;5060357;28;20104;-81
2022/08/28 04:39:57;;;;;;;9.18;3.63;;;;;;;;;;5060647;28;20516;-81
2022/08/28 04:42:24;;;;;;;9.20;3.08;;;;;;;;;;5060618;28;20037;-81
2022/08/28 04:44:50;;;;;;;12.32;3.67;;;;;;;;;;5059968;28;20048;-80
2022/08/28 04:47:16;;;;;;;9.35;3.40;;;;;;;;;;5078114;28;20074;-81
2022/08/28 04:49:42;;;;;;;10.82;3.00;;;;;;;;;;5062969;28;20040;-81
2022/08/28 04:52:10;;;;;;;11.20;3.60;;;;;;;;;;5078264;28;20040;-81
2022/08/28 04:54:36;;;;;;;12.75;2.85;;;;;;;;;;5075571;28;20479;-81
2022/08/28 04:57:02;;;;;;;16.63;3.60;;;;;;;;;;5076306;28;20087;-81
2022/08/28 04:59:29;;;;;;;10.75;2.92;;;;;;;;;;5066171;28;20046;-80
2022/08/28 05:01:55;;;;;;;14.52;3.50;;;;;;;;;;5075513;28;20517;-81
2022/08/28 05:04:21;;;;;;;9.35;3.00;;;;;;;;;;5075642;28;20498;-81
2022/08/28 05:06:47;;;;;;;11.32;3.25;;;;;;;;;;5060300;28;20083;-80
2022/08/28 05:09:14;;;;;;;11.15;3.35;;;;;;;;;;5075621;28;20141;-81
2022/08/28 05:11:41;;;;;;;9.48;3.15;;;;;;;;;;5075681;28;20486;-80
2022/08/28 05:14:08;;;;;;;10.43;3.03;;;;;;;;;;5055235;28;20067;-81
2022/08/28 05:17:00;;;;;;;11.02;3.10;;;;;;;;;;5077267;28;20047;-81
2022/08/28 05:19:27;;;;;;;13.98;3.42;;;;;;;;;;5074198;28;20041;-81
2022/08/28 05:21:53;;;;;;;11.77;3.88;;;;;;;;;;5077190;28;20073;-80
2022/08/28 05:24:20;;;;;;;11.13;3.50;;;;;;;;;;5074965;28;20044;-80
2022/08/28 05:26:46;;;;;;;9.95;3.20;;;;;;;;;;5057568;28;20044;-81
2022/08/28 05:29:13;;;;;;;8.60;3.00;;;;;;;;;;5076042;28;20079;-81
2022/08/28 05:31:40;;;;;;;9.93;2.90;;;;;;;;;;5057275;28;20091;-80
2022/08/28 05:34:06;;;;;;;11.07;3.13;;;;;;;;;;5077154;28;20063;-81
2022/08/28 05:36:33;;;;;;;8.98;2.70;;;;;;;;;;5076673;28;20041;-81
2022/08/28 05:38:59;;;;;;;9.85;2.63;;;;;;;;;;5077705;28;20124;-81
2022/08/28 05:41:29;;;;;;;9.90;2.85;;;;;;;;;;5076828;28;20045;-81
2022/08/28 05:43:56;;;;;;;8.63;2.78;;;;;;;;;;5076384;28;20424;-81
2022/08/28 05:46:23;;;;;;;11.98;2.83;;;;;;;;;;5073567;28;20040;-81
2022/08/28 05:48:49;;;;;;;9.30;2.95;;;;;;;;;;5074904;28;20052;-81
2022/08/28 05:51:17;;;;;;;11.88;3.25;;;;;;;;;;5060363;28;20403;-81
2022/08/28 05:53:43;;;;;;;8.55;2.65;;;;;;;;;;5073074;28;20076;-80
2022/08/28 05:56:11;;;;;;;11.60;2.90;;;;;;;;;;5054455;28;20044;-82
2022/08/28 05:58:39;;;;;;;10.68;3.08;;;;;;;;;;5076439;28;20056;-81
2022/08/28 06:01:08;;;;;;;9.00;2.80;;;;;;;;;;5076750;28;20075;-81
2022/08/28 06:03:35;;;;;;;9.10;2.53;;;;;;;;;;5078670;28;20041;-80
2022/08/28 06:06:01;;;;;;;10.57;2.83;;;;;;;;;;5077901;28;20352;-81
2022/08/28 06:08:28;;;;;;;9.18;2.80;;;;;;;;;;5078874;28;20105;-81
2022/08/28 06:10:55;;;;;;;10.82;2.83;;;;;;;;;;5081133;28;20059;-80
2022/08/28 06:13:21;;;;;;;10.98;2.65;;;;;;;;;;5081844;28;20079;-81
2022/08/28 06:15:47;;;;;;;9.13;2.75;;;;;;;;;;5083781;28;20052;-81
2022/08/28 06:18:14;;;;;;;9.18;2.88;;;;;;;;;;5081413;28;20154;-81
2022/08/28 06:20:42;;;;;;;9.13;2.80;;;;;;;;;;5083552;28;20033;-80
2022/08/28 06:23:09;;;;;;;9.95;2.35;;;;;;;;;;5058193;28;20516;-80
2022/08/28 06:25:45;;;;;;;8.25;2.58;;;;;;;;;;5076749;28;20131;-81
2022/08/28 06:28:12;;;;;;;10.98;2.88;;;;;;;;;;5076665;28;20104;-80
2022/08/28 06:30:45;;;;;;;9.18;2.60;;;;;;;;;;5059385;28;20048;-81
2022/08/28 06:33:11;;;;;;;13.38;2.60;;;;;;;;;;5060384;28;20076;-81
2022/08/28 06:35:41;;;;;;;10.63;3.00;;;;;;;;;;5075443;28;20066;-81
2022/08/28 06:38:07;;;;;;;9.93;2.53;;;;;;;;;;5062270;28;20071;-82
2022/08/28 06:41:00;;;;;;;9.02;2.25;;;;;;;;;;5074713;28;20036;-80
2022/08/28 06:43:27;;;;;;;9.32;2.50;;;;;;;;;;5054343;28;20048;-81
2022/08/28 06:45:54;;;;;;;9.32;2.80;;;;;;;;;;5074381;28;20045;-81
2022/08/28 06:48:22;;;;;;;10.75;2.45;;;;;;;;;;5076695;28;20036;-82
2022/08/28 06:50:51;;;;;;;7.55;2.40;;;;;;;;;;5077093;28;20100;-81
2022/08/28 06:53:21;;;;;;;10.38;2.50;;;;;;;;;;5061485;28;20044;-81
2022/08/28 06:55:55;;;;;;;9.48;2.53;;;;;;;;;;5081290;28;20445;-80
2022/08/28 06:58:21;;;;;;;8.88;2.60;;;;;;;;;;5087397;28;20400;-81
2022/08/28 07:00:48;;;;;;;9.77;2.42;;;;;;;;;;5087123;28;20223;-80
2022/08/28 07:03:14;;;;;;;12.63;2.50;;;;;;;;;;5080471;28;20093;-79
2022/08/28 07:05:40;;;;;;;8.23;2.40;;;;;;;;;;5065157;28;20044;-82
2022/08/28 07:08:06;;;;;;;10.23;2.30;;;;;;;;;;5087158;28;20048;-80
2022/08/28 07:10:32;;;;;;;7.95;2.00;;;;;;;;;;5080742;28;20036;-80
2022/08/28 07:12:59;;;;;;;8.63;2.33;;;;;;;;;;5059633;28;20411;-80
2022/08/28 07:15:25;;;;;;;8.50;2.08;;;;;;;;;;5078141;28;20134;-82
2022/08/28 07:17:51;;;;;;;7.70;2.30;;;;;;;;;;5086486;28;20070;-80
2022/08/28 07:20:17;;;;;;;9.32;2.30;;;;;;;;;;5081342;28;20098;-79
2022/08/28 07:22:43;;;;;;;9.00;2.58;;;;;;;;;;5082445;28;20041;-80
2022/08/28 07:25:10;;;;;;;14.25;2.28;;;;;;;;;;5075472;28;20071;-79
2022/08/28 07:27:37;;;;;;;10.57;2.30;;;;;;;;;;5080421;28;20070;-81
2022/08/28 07:30:05;;;;;;;7.25;1.80;;;;;;;;;;5079831;28;20045;-80
2022/08/28 07:32:32;;;;;;;9.68;2.05;;;;;;;;;;5068492;28;20081;-80
2022/08/28 07:34:58;;;;;;;11.43;2.22;;;;;;;;;;5066707;28;20045;-81
2022/08/28 07:37:25;;;;;;;7.43;2.05;;;;;;;;;;5082248;28;20044;-79
2022/08/28 07:39:51;;;;;;;8.30;2.13;;;;;;;;;;5087620;28;20060;-80
2022/08/28 07:45:02;;;;;;;7.10;2.03;;;;;;;;;;5069866;28;20056;-81
2022/08/28 07:47:32;;;;;;;9.40;2.10;;;;;;;;;;5083180;28;20050;-80
2022/08/28 07:50:00;;;;;;;9.23;2.22;;;;;;;;;;5064109;28;20044;-79
2022/08/28 07:52:27;;;;;;;11.27;1.98;;;;;;;;;;5081999;28;20071;-80
2022/08/28 07:54:53;;;;;;;7.22;1.95;;;;;;;;;;5083753;28;20096;-80
2022/08/28 07:57:20;;;;;;;8.98;2.08;;;;;;;;;;5070867;28;20036;-80
2022/08/28 07:59:46;;;;;;;9.93;2.05;;;;;;;;;;5074843;28;20044;-80
2022/08/28 08:02:12;;;;;;;7.70;2.05;;;;;;;;;;5071270;28;20040;-81
2022/08/28 08:04:39;;;;;;;14.95;2.35;;;;;;;;;;5088219;28;20049;-81
2022/08/28 08:07:05;;;;;;;16.02;2.20;;;;;;;;;;5086754;28;20049;-81
2022/08/28 08:09:31;;;;;;;10.07;1.98;;;;;;;;;;5090146;28;20048;-81
2022/08/28 08:11:57;;;;;;;10.63;1.95;;;;;;;;;;5089438;28;20044;-82
2022/08/28 08:14:23;;;;;;;8.70;2.13;;;;;;;;;;5087322;28;20052;-79
2022/08/28 08:16:51;;;;;;;8.18;1.80;;;;;;;;;;5081015;28;20052;-81
2022/08/28 08:19:19;;;;;;;9.45;1.92;;;;;;;;;;5068174;28;20033;-79
2022/08/28 08:21:47;;;;;;;8.18;2.00;;;;;;;;;;5066304;28;20097;-79
2022/08/28 08:24:19;;;;;;;10.05;1.90;;;;;;;;;;5082437;28;20482;-79
2022/08/28 08:26:45;;;;;;;10.75;2.15;;;;;;;;;;5083953;28;20431;-78
2022/08/28 08:29:12;;;;;;;10.05;2.00;;;;;;;;;;5080752;28;20047;-79
2022/08/28 08:31:39;;;;;;;8.70;2.00;;;;;;;;;;5080706;28;20040;-77
2022/08/28 08:34:05;;;;;;;8.60;1.95;;;;;;;;;;5078565;28;20040;-81
2022/08/28 08:36:32;;;;;;;6.40;1.77;;;;;;;;;;5070176;28;20051;-80
2022/08/28 08:38:59;;;;;;;7.75;1.98;;;;;;;;;;5066844;28;20037;-80
2022/08/28 08:41:25;;;;;;;8.20;2.00;;;;;;;;;;5062700;28;20068;-79
2022/08/28 08:43:57;;;;;;;10.50;1.90;;;;;;;;;;5083883;28;20048;-79
2022/08/28 08:46:26;;;;;;;9.95;1.90;;;;;;;;;;5065665;28;20055;-77
2022/08/28 08:48:53;;;;;;;9.27;1.85;;;;;;;;;;5051259;28;20297;-77
2022/08/28 08:51:32;;;;;;;10.10;2.13;;;;;;;;;;5074974;28;20040;-79
2022/08/28 08:54:03;;;;;;;6.53;1.92;;;;;;;;;;5085774;28;20093;-78
2022/08/28 08:56:29;;;;;;;11.13;1.90;;;;;;;;;;5085875;28;20051;-79
2022/08/28 08:58:57;;;;;;;11.77;2.28;;;;;;;;;;5081953;28;20497;-77
2022/08/28 09:01:30;;;;;;;13.23;2.00;;;;;;;;;;5084017;28;20068;-79
2022/08/28 09:03:59;;;;;;;9.55;1.60;;;;;;;;;;5083932;28;20040;-78
2022/08/28 09:06:47;;;;;;;10.90;1.98;;;;;;;;;;5067400;28;20124;-78
2022/08/28 09:09:28;;;;;;;7.68;2.08;;;;;;;;;;5069171;28;20382;-79
2022/08/28 09:11:57;;;;;;;7.53;2.10;;;;;;;;;;5066921;28;20051;-79
2022/08/28 09:14:29;;;;;;;7.70;2.00;;;;;;;;;;5082856;28;20052;-80
2022/08/28 09:16:57;;;;;;;6.82;2.30;;;;;;;;;;5083253;28;20044;-79
2022/08/28 09:19:23;;;;;;;7.82;2.05;;;;;;;;;;5081431;28;20050;-81
2022/08/28 09:21:50;;;;;;;8.35;1.95;;;;;;;;;;5084807;28;20398;-80
2022/08/28 09:27:52;;;;;;;10.48;2.20;;;;;;;;;;5078807;28;20032;-79
2022/08/28 09:30:28;;;;;;;10.27;1.98;;;;;;;;;;5083996;28;20068;-80
2022/08/28 09:32:59;;;;;;;7.55;1.80;;;;;;;;;;5069530;28;20057;-80
2022/08/28 09:35:33;;;;;;;6.10;1.70;;;;;;;;;;5086486;28;20051;-76
2022/08/28 09:38:17;;;;;;;10.85;2.00;;;;;;;;;;5084736;28;20158;-80
2022/08/28 09:43:30;;;;;;;9.63;1.67;;;;;;;;;;5087340;28;20041;-80
2022/08/28 09:45:59;;;;;;;8.85;2.25;;;;;;;;;;5087913;28;20040;-80
2022/08/28 09:48:31;;;;;;;8.93;1.80;;;;;;;;;;5086480;28;20083;-79
2022/08/28 09:51:05;;;;;;;9.82;2.20;;;;;;;;;;5072525;28;20388;-78
2022/08/28 09:53:33;;;;;;;7.95;1.90;;;;;;;;;;5054368;28;20044;-78
2022/08/28 09:56:04;;;;;;;8.02;2.08;;;;;;;;;;5086825;28;20036;-77
2022/08/28 09:58:38;;;;;;;11.32;2.58;;;;;;;;;;5085892;28;20123;-80
2022/08/28 10:01:10;;;;;;;8.65;2.13;;;;;;;;;;5086694;28;20048;-78
2022/08/28 10:03:46;;;;;;;11.48;2.10;;;;;;;;;;5069191;28;20407;-80
2022/08/28 10:06:20;;;;;;;13.70;2.20;;;;;;;;;;5056097;28;20020;-79
2022/08/28 10:08:49;;;;;;;9.57;2.13;;;;;;;;;;5085970;28;20167;-79
2022/08/28 10:11:22;;;;;;;10.57;2.30;;;;;;;;;;5087025;28;20044;-79
2022/08/28 10:14:03;;;;;;;6.85;1.70;;;;;;;;;;5084865;28;20059;-79
2022/08/28 10:16:48;;;;;;;6.85;1.80;;;;;;;;;;5068464;28;20058;-79
2022/08/28 10:19:34;;;;;;;12.85;2.35;;;;;;;;;;5052437;28;20052;-78
2022/08/28 10:22:15;;;;;;;10.30;2.05;;;;;;;;;;5088374;28;20411;-78
2022/08/28 10:24:41;;;;;;;;;;;;;;;;;;5086712;28;20100;-80
2022/08/28 10:27:07;;;;;;;8.27;1.90;;;;;;;;;;5071880;28;19927;-80
2022/08/28 10:29:33;;;;;;;7.97;2.35;;;;;;;;;;5088541;28;20074;-78
2022/08/28 10:32:11;;;;;;;7.38;2.10;;;;;;;;;;5070062;28;20045;-80
2022/08/28 10:34:46;;;;;;;9.70;2.42;;;;;;;;;;5081300;28;20052;-80
2022/08/28 10:37:31;;;;;;;8.93;2.28;;;;;;;;;;5089658;28;20080;-80
2022/08/28 10:39:59;;;;;;;8.45;2.25;;;;;;;;;;5087888;28;20394;-80
2022/08/28 10:42:37;;;;;;;11.25;2.20;;;;;;;;;;5068743;28;20067;-80
2022/08/28 10:45:12;;;;;;;10.55;2.50;;;;;;;;;;5091004;28;20049;-80
2022/08/28 10:47:40;;;;;;;11.18;1.90;;;;;;;;;;5074288;28;20053;-79
2022/08/28 10:50:09;;;;;;;9.13;2.28;;;;;;;;;;5094213;28;20067;-80
2022/08/28 10:52:39;;;;;;;11.35;2.25;;;;;;;;;;5090585;28;20048;-78
2022/08/28 10:55:10;;;;;;;8.23;2.13;;;;;;;;;;5089894;28;20090;-79
2022/08/28 10:57:40;;;;;;;7.53;2.20;;;;;;;;;;5089226;28;20190;-80
2022/08/28 11:00:11;;;;;;;9.23;2.20;;;;;;;;;;5092555;28;20029;-79
2022/08/28 11:02:38;;;;;;;10.52;2.15;;;;;;;;;;5093552;28;20032;-80
2022/08/28 11:05:04;;;;;;;7.00;1.90;;;;;;;;;;5089535;28;20028;-79
2022/08/28 11:07:39;;;;;;;9.15;2.03;;;;;;;;;;5092956;28;20040;-80
2022/08/28 11:10:17;;;;;;;6.80;1.85;;;;;;;;;;5069431;28;20048;-80
2022/08/28 11:12:43;;;;;;;8.50;2.03;;;;;;;;;;5087883;28;20049;-80
2022/08/28 11:15:27;;;;;;;8.90;2.38;;;;;;;;;;5089238;28;20048;-79
2022/08/28 11:17:55;;;;;;;10.13;2.38;;;;;;;;;;5078600;28;20024;-79
2022/08/28 11:20:23;;;;;;;9.45;2.00;;;;;;;;;;5099485;28;20041;-79
2022/08/28 11:22:58;;;;;;;8.30;2.00;;;;;;;;;;5075758;28;20126;-80
2022/08/28 11:25:44;;;;;;;8.32;2.13;;;;;;;;;;5040329;28;20127;-79
2022/08/28 11:28:16;;;;;;;8.13;2.10;;;;;;;;;;5063425;28;20041;-79
2022/08/28 11:30:44;;;;;;;9.65;1.80;;;;;;;;;;5093886;28;20048;-78
2022/08/28 11:33:34;;;;;;;7.75;2.20;;;;;;;;;;5073765;28;20082;-79
2022/08/28 11:36:00;;;;;;;8.75;2.00;;;;;;;;;;5079320;28;20070;-80
2022/08/28 11:38:58;;;;;;;6.90;2.10;;;;;;;;;;5075234;28;20036;-79
2022/08/28 11:41:29;;;;;;;7.25;2.25;;;;;;;;;;5077529;28;20173;-79
2022/08/28 11:44:13;;;;;;;5.70;1.77;;;;;;;;;;5094314;28;20045;-79
2022/08/28 11:46:40;;;;;;;7.32;2.13;;;;;;;;;;5075260;28;20108;-79
2022/08/28 11:49:25;;;;;;;10.25;2.05;;;;;;;;;;5075169;28;20044;-78
2022/08/28 11:51:57;;;;;;;5.25;1.80;;;;;;;;;;5059205;28;20060;-79
2022/08/28 11:54:29;;;;;;;8.75;2.17;;;;;;;;;;5093704;28;20100;-79
2022/08/28 11:57:06;;;;;;;8.00;2.35;;;;;;;;;;5060012;28;20096;-80
2022/08/28 11:59:38;;;;;;;7.85;1.88;;;;;;;;;;5093016;28;20044;-80
2022/08/28 12:02:22;;;;;;;6.85;1.80;;;;;;;;;;5092337;28;20123;-79
2022/08/28 12:04:49;;;;;;;7.90;2.05;;;;;;;;;;5094465;28;20074;-79
2022/08/28 12:07:16;;;;;;;9.32;1.95;;;;;;;;;;5089766;28;20041;-79
2022/08/28 12:09:48;;;;;;;13.60;1.92;;;;;;;;;;5089760;28;20088;-78
2022/08/28 12:12:20;;;;;;;11.13;2.10;;;;;;;;;;5070598;28;20443;-80
2022/08/28 12:14:46;;;;;;;7.28;1.77;;;;;;;;;;5068659;28;20059;-79
2022/08/28 12:17:21;;;;;;;7.05;1.63;;;;;;;;;;5084177;28;20048;-79
2022/08/28 12:20:09;;;;;;;8.05;2.10;;;;;;;;;;5068461;28;20040;-80
2022/08/28 12:22:55;;;;;;;7.53;1.80;;;;;;;;;;5088703;28;20067;-81
2022/08/28 12:25:24;;;;;;;7.38;2.20;;;;;;;;;;5082541;28;20043;-80
2022/08/28 12:27:52;;;;;;;7.75;2.22;;;;;;;;;;5086890;28;20048;-79
2022/08/28 12:30:32;;;;;;;6.85;1.98;;;;;;;;;;5086390;28;20504;-79
2022/08/28 12:33:02;;;;;;;8.32;1.95;;;;;;;;;;5085548;28;20064;-80
2022/08/28 12:35:29;;;;;;;8.38;2.08;;;;;;;;;;5084595;28;20044;-80
2022/08/28 12:37:56;;;;;;;7.90;2.22;;;;;;;;;;5066101;28;20494;-81
2022/08/28 12:40:48;;;;;;;10.98;2.50;;;;;;;;;;5086187;28;20048;-80
2022/08/28 12:43:18;;;;;;;7.82;2.15;;;;;;;;;;5069873;28;20192;-82
2022/08/28 12:45:50;;;;;;;7.90;1.88;;;;;;;;;;5085944;28;20045;-80
2022/08/28 12:48:16;;;;;;;8.77;2.92;;;;;;;;;;5077928;28;20075;-79
2022/08/28 12:50:42;;;;;;;8.02;2.10;;;;;;;;;;5074027;28;20051;-80
2022/08/28 12:53:15;;;;;;;6.88;2.40;;;;;;;;;;5084309;28;20045;-80
2022/08/28 12:55:42;;;;;;;10.00;2.47;;;;;;;;;;5079706;28;20076;-80
2022/08/28 12:58:13;;;;;;;7.13;2.40;;;;;;;;;;5077482;28;20072;-80
2022/08/28 13:00:47;;;;;;;8.33;2.50;;;;;;;;;;5083896;28;20049;-80
2022/08/28 13:03:13;;;;;;;7.57;2.30;;;;;;;;;;5066435;28;20045;-81
2022/08/28 13:05:40;;;;;;;10.68;2.53;;;;;;;;;;5066144;28;20052;-81
2022/08/28 13:08:08;;;;;;;8.57;2.30;;;;;;;;;;5066479;28;20059;-82
2022/08/28 13:10:34;;;;;;;7.95;2.28;;;;;;;;;;5085087;28;20072;-81
2022/08/28 13:13:00;;;;;;;7.70;2.38;;;;;;;;;;5088056;28;20052;-80
2022/08/28 13:15:41;;;;;;;8.18;2.40;;;;;;;;;;5068958;28;20052;-81
2022/08/28 13:18:07;;;;;;;6.53;2.30;;;;;;;;;;5086980;28;20067;-81
2022/08/28 13:20:35;;;;;;;7.72;2.20;;;;;;;;;;5069406;28;20044;-81
2022/08/28 13:23:01;;;;;;;5.78;1.98;;;;;;;;;;5083147;28;20049;-83
2022/08/28 13:25:35;;;;;;;10.38;2.00;;;;;;;;;;5084714;28;20048;-80
2022/08/28 13:28:03;;;;;;;8.98;2.45;;;;;;;;;;5082258;28;20070;-79
2022/08/28 13:30:33;;;;;;;8.75;2.35;;;;;;;;;;5080890;28;20040;-81
2022/08/28 13:33:05;;;;;;;6.53;2.10;;;;;;;;;;5064771;28;20116;-80
2022/08/28 13:35:34;;;;;;;6.60;2.33;;;;;;;;;;5084078;28;20418;-83
2022/08/28 13:38:02;;;;;;;7.78;2.20;;;;;;;;;;5083183;28;20052;-80
2022/08/28 13:40:33;;;;;;;6.65;2.30;;;;;;;;;;5083624;28;20060;-81
2022/08/28 13:43:05;;;;;;;9.73;2.33;;;;;;;;;;5064575;28;20529;-80
2022/08/28 13:45:32;;;;;;;7.53;1.73;;;;;;;;;;5083597;28;20084;-80
2022/08/28 13:47:58;;;;;;;6.13;2.10;;;;;;;;;;5067462;28;20367;-80
2022/08/28 13:50:26;;;;;;;6.70;2.08;;;;;;;;;;5055358;28;20128;-79
2022/08/28 13:52:52;;;;;;;7.78;1.90;;;;;;;;;;5081083;28;20048;-78
2022/08/28 13:55:18;;;;;;;9.02;2.10;;;;;;;;;;5080961;28;20041;-79
2022/08/28 13:57:45;;;;;;;6.97;2.17;;;;;;;;;;5082830;28;20053;-78
2022/08/28 14:00:11;;;;;;;7.32;1.80;;;;;;;;;;5081456;28;20047;-79
2022/08/28 14:05:24;;;;;;;8.68;1.90;;;;;;;;;;5082496;28;20045;-79
2022/08/28 14:07:50;;;;;;;5.75;1.63;;;;;;;;;;5064335;28;20048;-79
2022/08/28 14:10:16;;;;;;;6.50;1.67;;;;;;;;;;5064968;28;20044;-79
2022/08/28 14:12:45;;;;;;;7.40;1.67;;;;;;;;;;5082714;28;20067;-78
2022/08/28 14:15:11;;;;;;;7.03;1.83;;;;;;;;;;5083227;28;20049;-78
2022/08/28 14:17:38;;;;;;;5.57;1.30;;;;;;;;;;5083329;28;20041;-77
2022/08/28 14:20:05;;;;;;;5.88;1.45;;;;;;;;;;5082979;28;20091;-77
2022/08/28 14:22:34;;;;;;;5.75;1.58;;;;;;;;;;5082459;28;20048;-78
2022/08/28 14:25:01;;;;;;;7.95;1.60;;;;;;;;;;5082231;28;20067;-78
2022/08/28 14:27:27;;;;;;;8.20;1.50;;;;;;;;;;5048369;28;20104;-79
2022/08/28 14:29:53;;;;;;;6.68;1.50;;;;;;;;;;5084815;28;20059;-79
2022/08/28 14:32:19;;;;;;;6.15;1.67;;;;;;;;;;5067333;28;20501;-79
2022/08/28 14:34:46;;;;;;;6.32;1.48;;;;;;;;;;5085228;28;20040;-79
2022/08/28 14:37:13;;;;;;;6.15;1.60;;;;;;;;;;5085301;28;20040;-80
2022/08/28 14:39:39;;;;;;;8.57;1.67;;;;;;;;;;5081114;28;20049;-78
2022/08/28 14:42:05;;;;;;;5.93;1.60;;;;;;;;;;5077855;28;20112;-79
2022/08/28 14:44:32;;;;;;;8.50;1.50;;;;;;;;;;5074522;28;20120;-79
2022/08/28 14:46:58;;;;;;;4.43;1.30;;;;;;;;;;5074302;28;20045;-79
2022/08/28 14:49:25;;;;;;;9.13;1.42;;;;;;;;;;5079589;28;20432;-79
2022/08/28 14:51:52;;;;;;;7.38;1.55;;;;;;;;;;5082268;28;20044;-78
2022/08/28 14:54:20;;;;;;;7.30;1.80;;;;;;;;;;5079884;28;20045;-79
2022/08/28 14:56:47;;;;;;;7.68;1.70;;;;;;;;;;5063650;28;20045;-79
2022/08/28 14:59:14;;;;;;;9.27;1.60;;;;;;;;;;5067779;28;20055;-79
2022/08/28 15:01:40;;;;;;;9.70;1.90;;;;;;;;;;5069846;28;20068;-79